KRF3H DIAP-DNMM
Flight info
| Callsign | KRF3H |
|---|---|
| Flight time | N/A |
| Altitude | 33000 |
| Route | ONESI UB600 ACC UL433 TYE TYE1N |
| Aircraft | RJ70/M-SDFGIRWY/LB1 |
Departure
| Time | N/A |
|---|---|
| Airport | Félix-Houphouët-Boigny International Airport (DIAP) |
Arrival
| Time | 2026-05-07 11:12 |
|---|---|
| Airport | Murtala Muhammed International Airport (DNMM) |
| Time | Latitude | Longitude | Altitude | Speed | Heading |
|---|---|---|---|---|---|
| 2026-05-07 10:12 | 5.29640 | -3.57256 | 14973 ft | 316 kts | 83° |
| 2026-05-07 10:13 | 5.29898 | -3.55037 | 15060 ft | 333 kts | 83° |
| 2026-05-07 10:13 | 5.30082 | -3.53424 | 15082 ft | 345 kts | 83° |
| 2026-05-07 10:14 | 5.30347 | -3.51060 | 15127 ft | 360 kts | 84° |
| 2026-05-07 10:14 | 5.30627 | -3.48518 | 15325 ft | 370 kts | 83° |
| 2026-05-07 10:14 | 5.30947 | -3.45940 | 15697 ft | 375 kts | 82° |
| 2026-05-07 10:14 | 5.31264 | -3.43363 | 15693 ft | 371 kts | 83° |
| 2026-05-07 10:15 | 5.31559 | -3.40823 | 15679 ft | 371 kts | 83° |
| 2026-05-07 10:15 | 5.31857 | -3.38250 | 15673 ft | 372 kts | 83° |
| 2026-05-07 10:15 | 5.31941 | -3.37532 | 15673 ft | 372 kts | 83° |
| 2026-05-07 10:16 | 5.32121 | -3.35963 | 15673 ft | 372 kts | 83° |
| 2026-05-07 10:16 | 5.32408 | -3.33384 | 15673 ft | 372 kts | 84° |
| 2026-05-07 10:16 | 5.32699 | -3.30805 | 15670 ft | 372 kts | 83° |
| 2026-05-07 10:16 | 5.33004 | -3.28253 | 15664 ft | 360 kts | 83° |
| 2026-05-07 10:17 | 5.33297 | -3.25797 | 16160 ft | 349 kts | 83° |
| 2026-05-07 10:17 | 5.33579 | -3.23388 | 16750 ft | 349 kts | 83° |
| 2026-05-07 10:17 | 5.33860 | -3.20985 | 17103 ft | 353 kts | 83° |
| 2026-05-07 10:17 | 5.34145 | -3.18526 | 17477 ft | 357 kts | 83° |
| 2026-05-07 10:18 | 5.34433 | -3.16046 | 17836 ft | 360 kts | 83° |
| 2026-05-07 10:18 | 5.34722 | -3.13543 | 18200 ft | 363 kts | 84° |
| 2026-05-07 10:18 | 5.35017 | -3.11020 | 18580 ft | 365 kts | 83° |
| 2026-05-07 10:18 | 5.35315 | -3.08483 | 18957 ft | 367 kts | 83° |
| 2026-05-07 10:19 | 5.35629 | -3.05928 | 19298 ft | 370 kts | 84° |
| 2026-05-07 10:19 | 5.35920 | -3.03365 | 19699 ft | 371 kts | 84° |
| 2026-05-07 10:19 | 5.36222 | -3.00782 | 20051 ft | 373 kts | 84° |
| 2026-05-07 10:19 | 5.36522 | -2.98223 | 20417 ft | 375 kts | 83° |
| 2026-05-07 10:20 | 5.36831 | -2.95602 | 20582 ft | 383 kts | 84° |
| 2026-05-07 10:20 | 5.37148 | -2.92918 | 20644 ft | 392 kts | 84° |
| 2026-05-07 10:20 | 5.37473 | -2.90167 | 20686 ft | 402 kts | 84° |
| 2026-05-07 10:20 | 5.37803 | -2.87375 | 20945 ft | 404 kts | 84° |
| 2026-05-07 10:21 | 5.38134 | -2.84578 | 21293 ft | 404 kts | 84° |
| 2026-05-07 10:21 | 5.38446 | -2.81782 | 21689 ft | 403 kts | 85° |
| 2026-05-07 10:21 | 5.38746 | -2.78992 | 22052 ft | 403 kts | 84° |
| 2026-05-07 10:21 | 5.39072 | -2.76210 | 22436 ft | 400 kts | 83° |
| 2026-05-07 10:22 | 5.39376 | -2.73477 | 22718 ft | 400 kts | 85° |
| 2026-05-07 10:22 | 5.39630 | -2.70699 | 23033 ft | 400 kts | 85° |
| 2026-05-07 10:22 | 5.39861 | -2.67921 | 23377 ft | 400 kts | 86° |
| 2026-05-07 10:22 | 5.40093 | -2.65144 | 23758 ft | 398 kts | 85° |
| 2026-05-07 10:23 | 5.40348 | -2.62378 | 24095 ft | 398 kts | 85° |
| 2026-05-07 10:23 | 5.40615 | -2.59619 | 24417 ft | 397 kts | 85° |
| 2026-05-07 10:23 | 5.40863 | -2.56860 | 24739 ft | 397 kts | 85° |
| 2026-05-07 10:23 | 5.41104 | -2.54100 | 25052 ft | 396 kts | 86° |
| 2026-05-07 10:24 | 5.41351 | -2.51353 | 25390 ft | 395 kts | 85° |
| 2026-05-07 10:24 | 5.41596 | -2.48647 | 25694 ft | 394 kts | 85° |
| 2026-05-07 10:24 | 5.41845 | -2.45911 | 26023 ft | 393 kts | 85° |
| 2026-05-07 10:24 | 5.42094 | -2.43185 | 26334 ft | 392 kts | 85° |
| 2026-05-07 10:25 | 5.42340 | -2.40459 | 26629 ft | 392 kts | 86° |
| 2026-05-07 10:25 | 5.42587 | -2.37737 | 26915 ft | 391 kts | 86° |
| 2026-05-07 10:25 | 5.42834 | -2.35023 | 27229 ft | 390 kts | 86° |
| 2026-05-07 10:25 | 5.43085 | -2.32311 | 27529 ft | 390 kts | 86° |
| 2026-05-07 10:26 | 5.43340 | -2.29608 | 27793 ft | 389 kts | 86° |
| 2026-05-07 10:26 | 5.43596 | -2.26904 | 28054 ft | 389 kts | 86° |
| 2026-05-07 10:26 | 5.43848 | -2.24244 | 28333 ft | 388 kts | 86° |
| 2026-05-07 10:26 | 5.44106 | -2.21553 | 28598 ft | 387 kts | 86° |
| 2026-05-07 10:27 | 5.44346 | -2.18865 | 28851 ft | 387 kts | 86° |
| 2026-05-07 10:27 | 5.44582 | -2.16177 | 29098 ft | 386 kts | 86° |
| 2026-05-07 10:27 | 5.44834 | -2.13491 | 29342 ft | 386 kts | 86° |
| 2026-05-07 10:27 | 5.45072 | -2.10809 | 29594 ft | 385 kts | 86° |
| 2026-05-07 10:28 | 5.45302 | -2.08136 | 29823 ft | 385 kts | 86° |
| 2026-05-07 10:28 | 5.45545 | -2.05465 | 30057 ft | 384 kts | 86° |
| 2026-05-07 10:28 | 5.45787 | -2.02831 | 30283 ft | 384 kts | 86° |
| 2026-05-07 10:28 | 5.46031 | -2.00157 | 30459 ft | 385 kts | 86° |
| 2026-05-07 10:29 | 5.46287 | -1.97481 | 30660 ft | 385 kts | 86° |
| 2026-05-07 10:29 | 5.46537 | -1.94804 | 30826 ft | 386 kts | 86° |
| 2026-05-07 10:29 | 5.46786 | -1.92122 | 31026 ft | 386 kts | 86° |
| 2026-05-07 10:30 | 5.47284 | -1.86749 | 31367 ft | 387 kts | 86° |
| 2026-05-07 10:30 | 5.47527 | -1.84060 | 31542 ft | 387 kts | 86° |
| 2026-05-07 10:30 | 5.47765 | -1.81404 | 31685 ft | 388 kts | 86° |
| 2026-05-07 10:30 | 5.48004 | -1.78708 | 31846 ft | 388 kts | 86° |
| 2026-05-07 10:31 | 5.48239 | -1.76012 | 32021 ft | 388 kts | 86° |
| 2026-05-07 10:31 | 5.48469 | -1.73315 | 32152 ft | 389 kts | 86° |
| 2026-05-07 10:31 | 5.48961 | -1.67845 | 32158 ft | 398 kts | 85° |
| 2026-05-07 10:32 | 5.49506 | -1.62257 | 32181 ft | 406 kts | 85° |
| 2026-05-07 10:32 | 5.50062 | -1.56606 | 32259 ft | 412 kts | 85° |
| 2026-05-07 10:33 | 5.50342 | -1.53742 | 32371 ft | 413 kts | 85° |
| 2026-05-07 10:33 | 5.50622 | -1.50874 | 32516 ft | 413 kts | 85° |
| 2026-05-07 10:33 | 5.50898 | -1.48000 | 32645 ft | 413 kts | 85° |
| 2026-05-07 10:33 | 5.51171 | -1.45129 | 32766 ft | 414 kts | 85° |
| 2026-05-07 10:34 | 5.51440 | -1.42253 | 32900 ft | 413 kts | 85° |
| 2026-05-07 10:34 | 5.51704 | -1.39410 | 32943 ft | 407 kts | 85° |
| 2026-05-07 10:34 | 5.52223 | -1.33753 | 32961 ft | 407 kts | 85° |
| 2026-05-07 10:35 | 5.52737 | -1.28128 | 32968 ft | 408 kts | 85° |
| 2026-05-07 10:35 | 5.53254 | -1.22444 | 32966 ft | 410 kts | 85° |
| 2026-05-07 10:36 | 5.53802 | -1.16744 | 32971 ft | 410 kts | 85° |
| 2026-05-07 10:36 | 5.54348 | -1.11046 | 32968 ft | 410 kts | 84° |
| 2026-05-07 10:37 | 5.54892 | -1.05385 | 32970 ft | 410 kts | 85° |
| 2026-05-07 10:37 | 5.55445 | -0.99682 | 32972 ft | 410 kts | 85° |
| 2026-05-07 10:38 | 5.55979 | -0.93983 | 32967 ft | 410 kts | 85° |
| 2026-05-07 10:38 | 5.56534 | -0.88315 | 32965 ft | 411 kts | 85° |
| 2026-05-07 10:39 | 5.57081 | -0.82594 | 32969 ft | 412 kts | 84° |
| 2026-05-07 10:39 | 5.57622 | -0.76861 | 32972 ft | 413 kts | 85° |
| 2026-05-07 10:40 | 5.58182 | -0.71128 | 32968 ft | 413 kts | 85° |
| 2026-05-07 10:40 | 5.58711 | -0.65430 | 32970 ft | 413 kts | 84° |
| 2026-05-07 10:41 | 5.59269 | -0.59698 | 32967 ft | 413 kts | 85° |
| 2026-05-07 10:41 | 5.59814 | -0.53966 | 32971 ft | 413 kts | 85° |
| 2026-05-07 10:42 | 5.60353 | -0.48223 | 32973 ft | 413 kts | 85° |
| 2026-05-07 10:42 | 5.60896 | -0.42518 | 32969 ft | 413 kts | 85° |
| 2026-05-07 10:43 | 5.61699 | -0.34052 | 32968 ft | 413 kts | 85° |
| 2026-05-07 10:43 | 5.62245 | -0.28306 | 32960 ft | 413 kts | 85° |
| 2026-05-07 10:44 | 5.65221 | -0.10403 | 32960 ft | 413 kts | 70° |
| 2026-05-07 10:44 | 5.73485 | 0.11146 | 32963 ft | 413 kts | 71° |
| 2026-05-07 10:45 | 5.81543 | 0.32489 | 32967 ft | 412 kts | 70° |
| 2026-05-07 10:45 | 5.89589 | 0.54004 | 32969 ft | 410 kts | 71° |
| 2026-05-07 10:46 | 5.97595 | 0.75428 | 32971 ft | 409 kts | 71° |
| 2026-05-07 10:46 | 6.05574 | 0.96797 | 32961 ft | 410 kts | 70° |
| 2026-05-07 10:47 | 6.14516 | 1.17798 | 32962 ft | 408 kts | 68° |
| 2026-05-07 10:47 | 6.20509 | 1.39343 | 32958 ft | 403 kts | 83° |
| 2026-05-07 10:48 | 6.23964 | 1.61579 | 32960 ft | 402 kts | 81° |
| 2026-05-07 10:48 | 6.26908 | 1.80078 | 32953 ft | 402 kts | 82° |
| 2026-05-07 10:49 | 6.27789 | 1.85627 | 32950 ft | 402 kts | 82° |
| 2026-05-07 10:49 | 6.28655 | 1.91129 | 32950 ft | 401 kts | 81° |
| 2026-05-07 10:50 | 6.29522 | 1.96657 | 32954 ft | 401 kts | 82° |
| 2026-05-07 10:50 | 6.30405 | 2.02195 | 32962 ft | 401 kts | 82° |
| 2026-05-07 10:51 | 6.31285 | 2.07726 | 32943 ft | 401 kts | 81° |
| 2026-05-07 10:51 | 6.32155 | 2.13215 | 32939 ft | 400 kts | 81° |
| 2026-05-07 10:52 | 6.33026 | 2.18739 | 32939 ft | 400 kts | 81° |
| 2026-05-07 10:52 | 6.33459 | 2.21494 | 32781 ft | 396 kts | 82° |
| 2026-05-07 10:52 | 6.33886 | 2.24252 | 31861 ft | 401 kts | 81° |
| 2026-05-07 10:53 | 6.34320 | 2.27029 | 31014 ft | 403 kts | 81° |
| 2026-05-07 10:53 | 6.34746 | 2.29814 | 30128 ft | 404 kts | 81° |
| 2026-05-07 10:53 | 6.34907 | 2.30934 | 29784 ft | 404 kts | 82° |
| 2026-05-07 10:54 | 6.35077 | 2.32315 | 29422 ft | 393 kts | 83° |
| 2026-05-07 10:54 | 6.35368 | 2.34974 | 28816 ft | 381 kts | 82° |
| 2026-05-07 10:54 | 6.35705 | 2.37595 | 28319 ft | 375 kts | 81° |
| 2026-05-07 10:54 | 6.36187 | 2.40179 | 27587 ft | 377 kts | 77° |
| 2026-05-07 10:55 | 6.36904 | 2.42701 | 26871 ft | 376 kts | 68° |
| 2026-05-07 10:55 | 6.38020 | 2.45089 | 26189 ft | 376 kts | 64° |
| 2026-05-07 10:55 | 6.39165 | 2.47434 | 25632 ft | 371 kts | 64° |
| 2026-05-07 10:55 | 6.40316 | 2.49723 | 25228 ft | 364 kts | 63° |
| 2026-05-07 10:56 | 6.41436 | 2.51942 | 24869 ft | 356 kts | 63° |
| 2026-05-07 10:56 | 6.42526 | 2.54132 | 24668 ft | 344 kts | 64° |
| 2026-05-07 10:56 | 6.43562 | 2.56244 | 24526 ft | 331 kts | 64° |
| 2026-05-07 10:56 | 6.44567 | 2.58317 | 24055 ft | 330 kts | 64° |
| 2026-05-07 10:57 | 6.45608 | 2.60410 | 23200 ft | 340 kts | 64° |
| 2026-05-07 10:57 | 6.46693 | 2.62546 | 22604 ft | 344 kts | 64° |
| 2026-05-07 10:57 | 6.47729 | 2.64673 | 22442 ft | 333 kts | 66° |
| 2026-05-07 10:57 | 6.48654 | 2.66754 | 22284 ft | 322 kts | 67° |
| 2026-05-07 10:58 | 6.49503 | 2.68849 | 21669 ft | 326 kts | 70° |
| 2026-05-07 10:58 | 6.50241 | 2.71001 | 20887 ft | 335 kts | 73° |
| 2026-05-07 10:58 | 6.50893 | 2.73248 | 20412 ft | 332 kts | 73° |
| 2026-05-07 10:58 | 6.51665 | 2.75387 | 20339 ft | 318 kts | 69° |
| 2026-05-07 10:59 | 6.52477 | 2.77422 | 20079 ft | 311 kts | 69° |
| 2026-05-07 10:59 | 6.53288 | 2.79450 | 19521 ft | 314 kts | 68° |
| 2026-05-07 10:59 | 6.54225 | 2.81449 | 18987 ft | 317 kts | 64° |
| 2026-05-07 10:59 | 6.55258 | 2.83402 | 18595 ft | 314 kts | 64° |
| 2026-05-07 11:00 | 6.56224 | 2.85339 | 18383 ft | 306 kts | 66° |
| 2026-05-07 11:00 | 6.57097 | 2.87262 | 18158 ft | 299 kts | 69° |
| 2026-05-07 11:00 | 6.57835 | 2.89183 | 17719 ft | 300 kts | 73° |
| 2026-05-07 11:00 | 6.58462 | 2.91179 | 17321 ft | 297 kts | 74° |
| 2026-05-07 11:01 | 6.59022 | 2.93090 | 17628 ft | 269 kts | 75° |
| 2026-05-07 11:01 | 6.59588 | 2.94824 | 17521 ft | 261 kts | 71° |
| 2026-05-07 11:01 | 6.60310 | 2.96612 | 16268 ft | 294 kts | 67° |
| 2026-05-07 11:01 | 6.61182 | 2.98565 | 15422 ft | 311 kts | 66° |
| 2026-05-07 11:02 | 6.62119 | 3.00455 | 15517 ft | 289 kts | 62° |
| 2026-05-07 11:02 | 6.63131 | 3.02097 | 15779 ft | 266 kts | 58° |
| 2026-05-07 11:02 | 6.64132 | 3.03611 | 15720 ft | 258 kts | 57° |
| 2026-05-07 11:02 | 6.65204 | 3.05065 | 15512 ft | 256 kts | 56° |
| 2026-05-07 11:03 | 6.66193 | 3.06505 | 15520 ft | 247 kts | 58° |
| 2026-05-07 11:03 | 6.67169 | 3.07945 | 14865 ft | 263 kts | 58° |
| 2026-05-07 11:03 | 6.68271 | 3.09553 | 13841 ft | 291 kts | 55° |
| 2026-05-07 11:03 | 6.69491 | 3.11243 | 13056 ft | 304 kts | 57° |
| 2026-05-07 11:04 | 6.70639 | 3.13015 | 12812 ft | 297 kts | 59° |
| 2026-05-07 11:04 | 6.71686 | 3.14745 | 11947 ft | 275 kts | 60° |
| 2026-05-07 11:04 | 6.72648 | 3.16353 | 10454 ft | 264 kts | 60° |
| 2026-05-07 11:04 | 6.73604 | 3.17910 | 9086 ft | 259 kts | 59° |
| 2026-05-07 11:05 | 6.74529 | 3.19449 | 7813 ft | 256 kts | 63° |
| 2026-05-07 11:05 | 6.75140 | 3.21101 | 6613 ft | 260 kts | 78° |
| 2026-05-07 11:05 | 6.75327 | 3.23038 | 5786 ft | 284 kts | 86° |
| 2026-05-07 11:05 | 6.75403 | 3.24722 | 6113 ft | 260 kts | 86° |
| 2026-05-07 11:07 | 6.75422 | 3.25172 | 6216 ft | 251 kts | 88° |
| 2026-05-07 11:08 | 6.75479 | 3.26911 | 6161 ft | 234 kts | 89° |
| 2026-05-07 11:08 | 6.75394 | 3.28498 | 5869 ft | 229 kts | 105° |
| 2026-05-07 11:08 | 6.74588 | 3.29896 | 5192 ft | 238 kts | 139° |
| 2026-05-07 11:08 | 6.73114 | 3.30527 | 4791 ft | 229 kts | 178° |
| 2026-05-07 11:09 | 6.71521 | 3.30557 | 4273 ft | 231 kts | 181° |
| 2026-05-07 11:09 | 6.69954 | 3.30508 | 4088 ft | 220 kts | 183° |
| 2026-05-07 11:09 | 6.68441 | 3.30518 | 3634 ft | 224 kts | 179° |
| 2026-05-07 11:09 | 6.66812 | 3.30652 | 3072 ft | 244 kts | 171° |
| 2026-05-07 11:10 | 6.65201 | 3.31060 | 2740 ft | 230 kts | 165° |
| 2026-05-07 11:10 | 6.63734 | 3.31520 | 2022 ft | 208 kts | 172° |
| 2026-05-07 11:10 | 6.62459 | 3.31635 | 1686 ft | 166 kts | 189° |
| 2026-05-07 11:10 | 6.61341 | 3.31520 | 1026 ft | 162 kts | 198° |
| 2026-05-07 11:11 | 6.60254 | 3.31322 | 514 ft | 153 kts | 181° |
| 2026-05-07 11:11 | 6.59229 | 3.31304 | 256 ft | 141 kts | 177° |
| 2026-05-07 11:11 | 6.58322 | 3.31323 | 119 ft | 118 kts | 179° |
| 2026-05-07 11:11 | 6.57580 | 3.31333 | 96 ft | 100 kts | 178° |
| 2026-05-07 11:12 | 6.57124 | 3.31334 | 97 ft | 41 kts | 183° |
| 2026-05-07 11:12 | 6.56852 | 3.31336 | 95 ft | 38 kts | 178° |
| 2026-05-07 11:12 | 6.56598 | 3.31360 | 95 ft | 35 kts | 163° |
| 2026-05-07 11:12 | 6.56425 | 3.31437 | 93 ft | 16 kts | 140° |
| 2026-05-07 11:13 | 6.56418 | 3.31531 | 93 ft | 14 kts | 42° |
| 2026-05-07 11:13 | 6.56517 | 3.31546 | 93 ft | 15 kts | 359° |
| 2026-05-07 11:13 | 6.56641 | 3.31545 | 93 ft | 21 kts | 0° |
| 2026-05-07 11:13 | 6.56802 | 3.31545 | 94 ft | 25 kts | 8° |
| 2026-05-07 11:14 | 6.56818 | 3.31684 | 94 ft | 27 kts | 159° |
| 2026-05-07 11:14 | 6.56766 | 3.31707 | 94 ft | 0 kts | 16° |